• Join FlightAware (Why Join?)
  • Login
  • US Flag 
09:54AM EDT


 

Airport Tracker/Info


-or-


 

Live Flight TrackerFlight Track Log ✈ N789EX ✈ 24-Mar-2014 ✈ KMWH - KBFI

Flight Track Log - Related Links

Times and Time Zones

All times are in EDT time to prevent confusion due to time zone crossing. See the N789EX flight status page for this flight to view local times or setup timezone preferences in your user account.

Time Position Orientation Groundspeed Altitude Reporting Facility
EDT Latitude Longitude Course Direction KTS MPH feet Rate Location/Type
05:18PM 47.2397 -119.3511 295° West 186 214 4,000  Level Seattle Center
05:19PM 47.2708 -119.4539 294° West 258 297 8,100 1,680 Climbing Seattle Center
05:24PM 47.4124 -119.9110 295° West  Level FlightAware Approximate
05:25PM 47.5521 -120.2770 297° West 409 471 15,800  Level FlightAware ADS-B
05:26PM 47.6043 -120.4330 296° West 410 472 15,800  Level FlightAware ADS-B
05:27PM 47.6284 -120.5050 296° West 411 473 15,800  Level FlightAware ADS-B
05:28PM 47.6631 -120.6100 296° West 412 474 15,800  Level FlightAware ADS-B
05:28PM 47.6898 -120.6900 296° West 415 478 15,800  Level FlightAware ADS-B
05:29PM 47.7183 -120.7760 296° West 415 478 15,800  Level FlightAware ADS-B
05:29PM 47.7438 -120.8540 296° West 416 479 15,800 -120 Level FlightAware ADS-B
05:30PM 47.7713 -120.9380 296° West 411 473 15,700 -660 Descending FlightAware ADS-B
05:30PM 47.7983 -121.0210 296° West 401 461 15,100 -1,140 Descending FlightAware ADS-B
05:31PM 47.8224 -121.0950 296° West 396 456 14,500 -1,200 Descending FlightAware ADS-B
05:31PM 47.8422 -121.1590 292° West 391 450 14,000 -1,080 Descending FlightAware ADS-B
05:32PM 47.8563 -121.2350 280° West 383 441 13,500 -1,260 Descending FlightAware ADS-B
05:32PM 47.8626 -121.3220 275° West 382 440 12,700 -1,380 Descending FlightAware ADS-B
05:33PM 47.8682 -121.4100 275° West 376 433 12,000 -960 Descending FlightAware ADS-B
05:33PM 47.8735 -121.4920 275° West 337 388 11,700 -480 Descending FlightAware ADS-B
05:34PM 47.8776 -121.5590 275° West 308 354 11,500 -480 Descending FlightAware ADS-B
05:34PM 47.8817 -121.6250 275° West 281 323 11,200 -600 Descending FlightAware ADS-B
05:35PM 47.8829 -121.6457 275° West 278 320 11,100 -540 Descending FlightAware ADS-B (CYVR)
05:35PM 47.8842 -121.6680 274° West 278 320 11,000 -420 Descending FlightAware ADS-B
05:35PM 47.8844 -121.6760 271° West 277 319 11,000  Level FlightAware ADS-B
05:35PM 47.8841 -121.6820 266° West 276 318 11,000 -780 Level FlightAware ADS-B
05:35PM 47.8829 -121.6920 257° West 273 314 10,900 -720 Descending FlightAware ADS-B
05:35PM 47.8833 -121.6901 252° West 272 313 10,900  Level FlightAware ADS-B (CYVR)
05:35PM 47.8802 -121.7040 248° West 271 312 10,900  Level FlightAware ADS-B
05:35PM 47.8776 -121.7110 240° Southwest 269 310 10,900  Level FlightAware ADS-B
05:35PM 47.8776 -121.7111 239° Southwest 269 310 10,900  Level FlightAware ADS-B (CYVR)
05:35PM 47.8736 -121.7200 233° Southwest 269 310 10,900  Level FlightAware ADS-B
05:35PM 47.8708 -121.7240 228° Southwest 268 308 10,900  Level FlightAware ADS-B
05:35PM 47.8717 -121.7230 225° Southwest 269 310 10,900  Level FlightAware ADS-B (CYVR)
05:36PM 47.8457 -121.7590 223° Southwest 268 308 10,900  Level FlightAware ADS-B
05:36PM 47.8415 -121.7647 222° Southwest 269 310 10,900  Level FlightAware ADS-B (CYVR)
05:36PM 47.8379 -121.7690 219° Southwest 269 310 10,900 -780 Level FlightAware ADS-B
05:36PM 47.8332 -121.7740 214° Southwest 269 310 10,800 -780 Descending FlightAware ADS-B
05:36PM 47.8293 -121.7770 208° Southwest 268 308 10,800 -720 Level FlightAware ADS-B
05:36PM 47.8239 -121.7810 202° Southwest 268 308 10,700 -1,620 Descending FlightAware ADS-B
05:36PM 47.8112 -121.7872 196° South 266 306 10,300 -1,620 Descending FlightAware ADS-B (CYVR)
05:37PM 47.7933 -121.7950 195° South 263 303 10,000 -1,200 Descending FlightAware ADS-B
05:37PM 47.7839 -121.7985 195° South 262 302 9,900 -1,200 Descending FlightAware ADS-B (CYVR)
05:37PM 47.7748 -121.8020 195° South 262 302 9,700 -1,620 Descending FlightAware ADS-B
05:37PM 47.7568 -121.8090 195° South 261 300 9,300 -1,500 Descending FlightAware ADS-B
05:37PM 47.7419 -121.8150 195° South 260 299 9,000 -1,440 Descending FlightAware ADS-B
05:37PM 47.7391 -121.8165 195° South 260 299 8,900 -1,620 Descending FlightAware ADS-B (CYVR)
05:38PM 47.7248 -121.8220 195° South 258 297 8,600 -1,380 Descending FlightAware ADS-B
05:38PM 47.7122 -121.8270 196° South 256 295 8,400 -1,500 Descending FlightAware ADS-B
05:38PM 47.7064 -121.8300 200° South 255 293 8,200 -1,380 Descending FlightAware ADS-B
05:38PM 47.7018 -121.8330 202° Southwest 254 292 8,200 -1,440 Level FlightAware ADS-B
05:38PM 47.6924 -121.8390 205° Southwest 252 290 7,900 -1,740 Descending FlightAware ADS-B
05:38PM 47.6796 -121.8480 206° Southwest 252 290 7,600 -1,680 Descending FlightAware ADS-B
05:38PM 47.6685 -121.8560 207° Southwest 254 292 7,300 -1,620 Descending FlightAware ADS-B
05:39PM 47.6523 -121.8680 207° Southwest 255 293 6,900 -1,380 Descending FlightAware ADS-B
05:39PM 47.6363 -121.8800 206° Southwest 254 292 6,600 -1,380 Descending FlightAware ADS-B
05:39PM 47.6239 -121.8890 207° Southwest 253 291 6,300 -1,380 Descending FlightAware ADS-B
05:39PM 47.6084 -121.9010 206° Southwest 251 289 6,000 -1,200 Descending FlightAware ADS-B
05:40PM 47.5925 -121.9120 206° Southwest 250 288 5,700 -1,440 Descending FlightAware ADS-B
05:40PM 47.5770 -121.9240 206° Southwest 249 287 5,300 -1,440 Descending FlightAware ADS-B
05:40PM 47.5663 -121.9320 207° Southwest 248 285 5,100 -1,440 Descending FlightAware ADS-B
05:40PM 47.5516 -121.9430 207° Southwest 250 288 4,700 -1,620 Descending FlightAware ADS-B
05:41PM 47.5355 -121.9550 207° Southwest 254 292 4,300 -1,320 Descending FlightAware ADS-B
05:41PM 47.5216 -121.9660 207° Southwest 259 298 4,100 -420 Descending FlightAware ADS-B
05:41PM 47.5055 -121.9780 207° Southwest 258 297 4,100  Level FlightAware ADS-B
05:41PM 47.4906 -121.9890 207° Southwest 260 299 4,100  Level FlightAware ADS-B
05:42PM 47.4767 -122.0000 208° Southwest 263 303 4,100  Level FlightAware ADS-B
05:42PM 47.4618 -122.0120 209° Southwest 264 304 4,100  Level FlightAware ADS-B
05:42PM 47.4586 -122.0150 211° Southwest 263 303 4,100  Level FlightAware ADS-B
05:42PM 47.4552 -122.0180 215° Southwest 262 302 4,100  Level FlightAware ADS-B
05:42PM 47.4524 -122.0210 220° Southwest 261 300 4,100  Level FlightAware ADS-B
05:42PM 47.4498 -122.0250 226° Southwest 260 299 4,100  Level FlightAware ADS-B
05:42PM 47.4468 -122.0310 233° Southwest 258 297 4,100 -780 Level FlightAware ADS-B
05:42PM 47.4445 -122.0360 240° Southwest 256 295 4,000 -1,740 Descending FlightAware ADS-B
05:42PM 47.4427 -122.0410 243° Southwest 254 292 3,900 -2,580 Descending FlightAware ADS-B
05:42PM 47.4407 -122.0470 245° Southwest 253 291 3,700 -3,180 Descending FlightAware ADS-B
05:42PM 47.4339 -122.0710 248° West 256 295 2,900 -2,340 Descending FlightAware ADS-B
05:43PM 47.4291 -122.0890 247° West 247 284 2,700 -1,200 Descending FlightAware ADS-B
05:43PM 47.4248 -122.1040 247° West 233 268 2,500 -720 Descending FlightAware ADS-B
05:43PM 47.4188 -122.1250 248° West 215 247 2,400 -360 Descending FlightAware ADS-B
05:43PM 47.4176 -122.1300 251° West 210 242 2,400  Level FlightAware ADS-B
05:43PM 47.4166 -122.1360 256° West 206 237 2,400  Level FlightAware ADS-B
05:43PM 47.4158 -122.1430 263° West 201 231 2,400 -720 Level FlightAware ADS-B
05:43PM 47.4157 -122.1480 269° West 198 228 2,300 -720 Descending FlightAware ADS-B
05:43PM 47.4159 -122.1550 275° West 193 222 2,300  Level FlightAware ADS-B
05:43PM 47.4164 -122.1590 279° West 188 216 2,300 -780 Level FlightAware ADS-B
05:44PM 47.4171 -122.1650 283° West 183 211 2,200 -900 Descending FlightAware ADS-B
05:44PM 47.4178 -122.1680 285° West 179 206 2,200  Level FlightAware ADS-B
05:44PM 47.4202 -122.1800 286° West 167 192 2,200 300 Level FlightAware ADS-B
05:44PM 47.4215 -122.1870 287° West 164 189 2,300 660 Climbing FlightAware ADS-B
05:44PM 47.4224 -122.1910 291° West 164 189 2,300  Level FlightAware ADS-B
05:44PM 47.4233 -122.1940 294° West 165 190 2,300  Level FlightAware ADS-B
05:44PM 47.4244 -122.1970 298° West 166 191 2,300  Level FlightAware ADS-B
05:44PM 47.4256 -122.2000 302° West 166 191 2,300  Level FlightAware ADS-B
05:44PM 47.4269 -122.2030 305° West 166 191 2,300 -1,020 Level FlightAware ADS-B
05:44PM 47.4284 -122.2060 308° West 164 189 2,200 -2,040 Descending FlightAware ADS-B
05:44PM 47.4300 -122.2080 311° West 164 189 2,100 -1,500 Descending FlightAware ADS-B
05:44PM 47.4324 -122.2120 314° West 164 189 2,000 -1,500 Descending FlightAware ADS-B
05:44PM 47.4341 -122.2150 316° Northwest 165 190 1,900 -1,140 Descending FlightAware ADS-B
05:45PM 47.4390 -122.2210 320° Northwest 164 189 1,800 -960 Descending FlightAware ADS-B
05:45PM 47.4452 -122.2290 318° Northwest 162 186 1,600 -780 Descending FlightAware ADS-B
05:45PM 47.4477 -122.2320 319° Northwest 162 186 1,600  Level FlightAware ADS-B
05:45PM 47.4498 -122.2350 323° Northwest 159 183 1,600 -900 Level FlightAware ADS-B
05:45PM 47.4518 -122.2370 326° Northwest 159 183 1,500 -900 Descending FlightAware ADS-B
05:45PM 47.4537 -122.2390 328° Northwest 158 182 1,500 -720 Level FlightAware ADS-B
05:45PM 47.4575 -122.2420 331° Northwest 158 182 1,400 -720 Descending FlightAware ADS-B
05:45PM 47.4650 -122.2480 332° Northwest 153 176 1,300 -900 Descending FlightAware ADS-B
05:46PM 47.4743 -122.2560 331° Northwest 145 167 1,000 -900 Descending FlightAware ADS-B
05:46PM 47.4856 -122.2650 330° Northwest 144 166 800 -600 Descending FlightAware ADS-B
05:47PM 47.5092 -122.2861 330° Northwest 137 158 300 -600 Descending Seattle Center
05:47PM 47.5161 -122.2906 337° Northwest 141 162 200 -600 Descending Seattle Center